Current Weather

Three Rivers Muni Dr Haines

Three Rivers, Michigan (KHAI)

Report from: Friday, February 23, 2024 3:35 PM EST
Current time: Friday, February 23, 2024 3:51 PM EST

Nearby weather – Weather history – Daily summaries
Weather forecast

Temperature8.0°C (46.4°F)
Wind chill4.5°C (40.0°F)
Dew point-2.0°C (28.4°F)
Winds 13 kts (6.7 m/s, 15 mph) Northwest (320°)
Wind gusts 19 kts (9.8 m/s, 21.9 mph)
Visibility10 mi. (16.1 km)
Clouds Scattered clouds 9,500 ft. (2,896 m)
Ceiling: Broken clouds 11,000 ft. (3,353 m)
Altimeter29.65 in.Hg (1004 mB)
Relative humidity49 %
Density altitude-445 ft. (-135 m)
Remarks Fully automated report
Automated weather observing station with precipitation discriminator
Flight conditions Visual Meteorological Conditions
Raw dataKHAI 232035Z AUTO 32013G19KT 10SM SCT095 BKN110 08/M02 A2965 RMK AO2 T00801020
An error has occurred. This application may no longer respond until reloaded. Reload 🗙